Oven Fork, Kentucky
Current Conditions -  °F | °C
As of 1:55 PM on Tuesday 27 Jan 2015 (Local Time) from KI35 Reporting Station
Overcast Overcast  
Wind Chill: 25°   Ceiling: 2500
Heat Index: 32°   Visibility: 10mi
Dew Point: 21°   Wind: 8mph
Humidity: 64%   Direction: 300°WNW
Pressure: 29.96"   Gusts: NA
Location:  36.9548°N, 82.9776°W
Report Text: KI35 271855Z AUTO 30007KT 10SM OVC025 00/M06 A2996 RMK AO1
Loading
Personal Weather Stations






























Interactive Weather Map New forecast layout! Learn more

10-Day Weather Forecast

Advertisements
Track Severe Weather on mobile